Latest Weather Observations for Port Lincoln Airport

IDS60801

Issued at 4:01 pm CST Tuesday 25 July 2017 (issued every 30 minutes, with the page automatically refreshed every 10 minutes)

About weather observations | Map of weather stations | Latest weather observations for SA | Other Formats
Station Details ID: 018192 Name: PORT LINCOLN AWS Lat: -34.60 Lon: 135.88 Height: 8.5 m
Data from the previous 72 hours. | See also: Recent months at Port Lincoln Airport
Date/Time
CST
Temp
°C
App
Temp
°C
Dew
Point
°C
Rel
Hum
%
Delta-T
°C
Wind Press
QNH
hPa
Press
MSL
hPa
Rain since
9am
mm
Dir  Spd
km/h
Gust
km/h
Spd
kts
Gust
kts
25/04:00pm 17.0 11.4 10.1 64 3.6 W 30 43 16 23 1017.7 1017.7 0.0
25/03:30pm 17.6 11.4 10.2 62 3.9 W 33 44 18 24 1017.6 1017.6 0.0
25/03:00pm 17.9 11.2 9.5 58 4.4 W 35 46 19 25 1017.5 1017.5 0.0
25/02:30pm 18.2 11.5 9.5 57 4.6 W 35 44 19 24 1017.5 1017.5 0.0
25/02:00pm 18.1 10.5 9.2 56 4.7 W 39 50 21 27 1017.5 1017.5 0.0
25/01:30pm 18.1 11.4 9.7 58 4.4 W 35 48 19 26 1017.7 1017.7 0.0
25/01:00pm 18.0 10.4 9.1 56 4.6 W 39 48 21 26 1018.0 1018.0 0.0
25/12:30pm 18.3 11.7 9.9 58 4.4 WNW 35 48 19 26 1018.1 1018.1 0.0
25/12:00pm 18.2 11.4 10.6 61 4.1 WNW 37 46 20 25 1018.6 1018.6 0.0
25/11:30am 18.1 12.1 10.7 62 4.0 WNW 33 43 18 23 1018.7 1018.7 0.0
25/11:00am 17.4 11.2 11.4 68 3.3 WNW 35 46 19 25 1018.5 1018.5 0.0
25/10:30am 16.9 11.8 11.8 72 2.8 WNW 30 43 16 23 1018.7 1018.7 0.0
25/10:00am 16.3 12.5 12.5 78 2.1 WNW 24 37 13 20 1018.8 1018.8 0.0
25/09:30am 15.5 12.7 12.6 83 1.6 NW 19 24 10 13 1018.7 1018.7 0.0
25/09:00am 13.9 11.8 12.3 90 0.9 WNW 15 17 8 9 1018.5 1018.5 0.0
25/08:30am 12.3 10.7 11.5 95 0.4 NW 11 15 6 8 1018.3 1018.3 0.0
25/08:00am 10.8 8.8 10.3 97 0.3 NW 11 13 6 7 1018.2 1018.2 0.0
25/07:30am 10.3 7.8 9.7 96 0.3 NW 13 15 7 8 1017.8 1017.8 0.0
25/07:00am 11.0 8.3 10.5 97 0.3 WNW 15 19 8 10 1017.5 1017.5 0.0
25/06:30am 10.0 8.6 9.7 98 0.1 NW 7 15 4 8 1016.9 1016.9 0.0
25/06:00am 9.9 7.3 9.4 97 0.2 WNW 13 15 7 8 1016.7 1016.7 0.0
25/05:30am 9.8 7.2 9.2 96 0.3 NW 13 17 7 9 1016.7 1016.7 0.0
25/05:00am 10.6 8.2 10.0 96 0.3 WNW 13 17 7 9 1016.7 1016.7 0.0
25/04:30am 9.8 6.4 9.0 95 0.4 NW 17 20 9 11 1016.5 1016.5 0.0
25/04:00am 9.8 6.9 8.2 90 0.8 NNW 13 17 7 9 1016.6 1016.6 0.0
25/03:30am 9.8 6.4 7.6 86 1.0 NNW 15 17 8 9 1016.5 1016.5 0.0
25/03:00am 9.7 6.2 7.3 85 1.1 NW 15 19 8 10 1016.8 1016.8 0.0
25/02:30am 9.9 6.4 7.0 82 1.4 NW 15 20 8 11 1016.8 1016.8 0.0
25/02:00am 9.3 5.7 6.6 83 1.3 NNW 15 20 8 11 1016.7 1016.7 0.0
25/01:30am 10.6 6.2 6.6 76 1.9 NW 19 22 10 12 1016.6 1016.6 0.0
25/01:00am 10.1 7.2 6.4 78 1.7 NW 11 17 6 9 1016.2 1016.2 0.0
25/12:30am 10.9 8.4 6.6 75 2.0 NNW 9 13 5 7 1016.1 1016.1 0.0
25/12:00am 10.9 6.5 6.6 75 2.0 NNW 19 24 10 13 1016.3 1016.3 0.0
 
Date/Time
CST
Temp
°C
App
Temp
°C
Dew
Point
°C
Rel
Hum
%
Delta-T
°C
Wind Press
QNH
hPa
Press
MSL
hPa
Rain since
9am
mm
Dir  Spd
km/h
Gust
km/h
Spd
kts
Gust
kts
24/11:30pm 11.5 7.5 6.8 73 2.2 NNW 17 20 9 11 1016.7 1016.7 0.0
24/11:00pm 11.6 7.6 6.7 72 2.3 NW 17 19 9 10 1016.7 1016.7 0.0
24/10:30pm 12.3 7.4 6.8 69 2.6 NNW 22 26 12 14 1016.8 1016.8 0.0
24/10:00pm 11.0 7.9 7.1 77 1.9 NW 13 17 7 9 1016.9 1016.9 0.0
24/09:30pm 11.2 7.7 7.1 76 2.0 NNW 15 17 8 9 1017.1 1017.1 0.0
24/09:00pm 11.3 9.4 7.4 77 1.9 WNW 7 13 4 7 1017.1 1017.1 0.0
24/08:30pm 11.7 9.1 7.8 77 1.9 WNW 11 13 6 7 1017.2 1017.2 0.0
24/08:00pm 12.5 9.9 7.8 73 2.3 NNW 11 15 6 8 1017.3 1017.3 0.0
24/07:30pm 12.5 10.3 7.8 73 2.3 NW 9 15 5 8 1017.2 1017.2 0.0
24/07:00pm 12.7 10.8 7.4 70 2.6 NW 7 11 4 6 1017.1 1017.1 0.0
24/06:30pm 13.6 11.4 7.8 68 2.9 NNW 9 11 5 6 1016.9 1016.9 0.0
24/06:00pm 14.4 11.4 7.9 65 3.2 WNW 13 17 7 9 1016.7 1016.7 0.0
24/05:30pm 16.8 13.9 8.0 56 4.4 WNW 13 17 7 9 1016.7 1016.7 0.0
24/05:00pm 18.8 15.6 8.5 51 5.3 NW 15 19 8 10 1016.3 1016.3 0.0
24/04:30pm 20.4 17.0 7.7 44 6.5 NW 15 20 8 11 1016.4 1016.4 0.0
24/04:00pm 20.7 16.4 7.7 43 6.7 NW 20 30 11 16 1016.4 1016.4 0.0
24/03:30pm 20.9 16.2 7.9 43 6.7 NW 22 32 12 17 1016.5 1016.5 0.0
24/03:00pm 20.5 15.6 8.5 46 6.3 NW 24 30 13 16 1016.7 1016.7 0.0
24/02:30pm 20.9 16.6 9.2 47 6.2 NNW 22 33 12 18 1016.7 1016.7 0.0
24/02:00pm 20.6 15.7 8.6 46 6.3 NNW 24 35 13 19 1017.1 1017.1 0.0
24/01:30pm 20.7 16.3 9.0 47 6.2 NW 22 30 12 16 1017.5 1017.5 0.0
24/01:00pm 20.0 15.5 9.9 52 5.4 NNW 24 35 13 19 1018.0 1018.0 0.0
24/12:30pm 19.3 15.2 10.0 55 5.0 NNW 22 28 12 15 1018.8 1018.8 0.0
24/12:00pm 18.6 14.7 10.7 60 4.2 NNW 22 30 12 16 1019.5 1019.5 0.0
24/11:30am 17.0 12.1 10.1 64 3.6 NNW 26 35 14 19 1020.0 1020.0 0.0
24/11:00am 16.1 10.9 10.2 68 3.1 NNW 28 35 15 19 1020.4 1020.4 0.0
24/10:30am 15.4 10.5 10.0 70 2.8 NNW 26 39 14 21 1020.4 1020.4 0.0
24/10:00am 14.8 9.8 11.0 78 2.0 NNW 28 35 15 19 1020.4 1020.4 0.0
24/09:30am 13.7 9.7 10.5 81 1.7 NNW 22 30 12 16 1020.3 1020.3 0.0
24/09:00am 12.5 10.2 10.4 87 1.1 NNE 13 20 7 11 1020.3 1020.3 0.6
24/08:30am 11.3 9.2 9.9 91 0.7 N 11 15 6 8 1020.2 1020.2 0.6
24/08:00am 9.9 6.4 8.8 93 0.5 N 17 19 9 10 1020.1 1020.1 0.6
24/07:30am 9.2 6.0 8.4 95 0.4 N 15 17 8 9 1020.1 1020.1 0.6
24/07:00am 9.0 7.0 8.7 98 0.1 NNW 9 13 5 7 1020.0 1020.0 0.6
24/06:30am 9.5 6.9 9.2 98 0.1 NW 13 15 7 8 1019.9 1019.9 0.6
24/06:00am 10.0 7.6 9.9 99 0.1 NNW 13 17 7 9 1019.9 1019.9 0.6
24/05:54am 10.0 7.2 9.9 99 0.1 NW 15 17 8 9 1019.9 1019.9 0.6
24/05:30am 10.6 8.3 10.4 99 0.1 WNW 13 19 7 10 1019.9 1019.9 0.4
24/05:14am 10.1 7.7 10.0 99 0.1 NW 13 17 7 9 1019.9 1019.9 0.4
24/05:00am 9.9 6.1 9.8 99 0.1 NW 20 24 11 13 1019.9 1019.9 0.4
24/04:30am 10.2 7.4 9.9 98 0.2 NW 15 22 8 12 1019.7 1019.7 0.4
24/04:25am 10.1 7.6 9.8 98 0.2 NW 13 15 7 8 1019.7 1019.7 0.4
24/04:00am 10.2 7.3 9.6 96 0.3 NNW 15 20 8 11 1019.7 1019.7 0.4
24/03:30am 10.4 8.6 9.6 95 0.4 NNW 9 13 5 7 1019.9 1019.9 0.4
24/03:00am 10.7 9.6 9.9 95 0.4 NW 6 9 3 5 1020.2 1020.2 0.4
24/02:30am 11.3 9.0 10.5 95 0.4 NNW 13 15 7 8 1020.2 1020.2 0.4
24/02:02am 11.8 9.7 11.0 95 0.4 NNW 13 17 7 9 1020.5 1020.5 0.4
24/02:00am 11.9 9.8 11.1 95 0.4 NNW 13 17 7 9 1020.4 1020.4 0.4
24/01:49am 11.9 9.4 11.1 95 0.4 NW 15 20 8 11 1020.4 1020.4 0.4
24/01:30am 11.9 8.9 10.8 93 0.6 NW 17 20 9 11 1020.4 1020.4 0.4
24/01:00am 10.9 8.5 10.1 95 0.4 NNW 13 17 7 9 1020.5 1020.5 0.4
24/12:30am 10.1 8.7 9.0 93 0.5 NW 6 9 3 5 1020.5 1020.5 0.4
24/12:00am 11.4 9.5 10.5 94 0.5 NW 11 17 6 9 1020.7 1020.7 0.4
 
Date/Time
CST
Temp
°C
App
Temp
°C
Dew
Point
°C
Rel
Hum
%
Delta-T
°C
Wind Press
QNH
hPa
Press
MSL
hPa
Rain since
9am
mm
Dir  Spd
km/h
Gust
km/h
Spd
kts
Gust
kts
23/11:30pm 11.0 8.6 10.1 94 0.5 WNW 13 17 7 9 1021.0 1021.0 0.4
23/11:14pm 11.0 8.6 10.2 95 0.4 NW 13 17 7 9 1020.9 1020.9 0.4
23/11:00pm 11.6 9.0 10.8 95 0.4 WNW 15 17 8 9 1020.9 1020.9 0.4
23/10:48pm 11.7 8.7 10.8 94 0.5 WNW 17 22 9 12 1021.0 1021.0 0.2
23/10:30pm 10.2 8.7 9.3 94 0.4 NW 7 11 4 6 1020.9 1020.9 0.2
23/10:00pm 10.0 6.9 8.8 92 0.6 WNW 15 17 8 9 1020.7 1020.7 0.2
23/09:30pm 10.0 7.6 8.8 92 0.6 NW 11 13 6 7 1020.9 1020.9 0.2
23/09:00pm 10.4 7.4 9.3 93 0.5 WNW 15 17 8 9 1020.7 1020.7 0.2
23/08:30pm 9.7 8.0 8.5 92 0.6 NW 7 11 4 6 1020.5 1020.5 0.2
23/08:00pm 10.4 7.5 9.5 94 0.4 WNW 15 17 8 9 1020.1 1020.1 0.2
23/07:30pm 10.7 8.2 9.6 93 0.6 WNW 13 17 7 9 1019.9 1019.9 0.2
23/07:00pm 10.5 7.9 9.3 92 0.6 NW 13 15 7 8 1019.5 1019.5 0.2
23/06:30pm 10.8 8.6 9.4 91 0.7 WNW 11 13 6 7 1019.3 1019.3 0.2
23/06:00pm 12.1 9.7 10.0 87 1.1 WSW 13 15 7 8 1018.9 1018.9 0.2
23/05:32pm 12.7 10.0 10.2 85 1.3 W 15 19 8 10 1018.9 1018.9 0.2
23/05:30pm 12.8 10.1 10.3 85 1.3 W 15 19 8 10 1018.9 1018.9 0.2
23/05:12pm 13.6 9.7 10.8 83 1.5 W 22 30 12 16 1018.9 1018.9 0.2
23/05:00pm 14.9 11.2 9.3 69 2.9 W 19 22 10 12 1018.7 1018.7 0.0
23/04:30pm 16.2 12.4 8.9 62 3.7 WSW 19 28 10 15 1018.3 1018.3 0.0
23/04:00pm 17.5 12.2 8.6 56 4.6 W 26 35 14 19 1018.2 1018.2 0.0
23/03:30pm 16.5 11.0 9.0 61 3.9 W 28 37 15 20 1018.3 1018.3 0.0
23/03:00pm 16.0 10.9 9.2 64 3.5 W 26 35 14 19 1018.3 1018.3 0.0
23/02:30pm 17.2 11.8 9.4 60 4.1 WSW 28 35 15 19 1018.1 1018.1 0.0
23/02:00pm 17.8 11.7 9.9 60 4.2 WSW 32 43 17 23 1018.0 1018.0 0.0
23/01:30pm 18.0 12.8 10.1 60 4.2 WSW 28 35 15 19 1018.1 1018.1 0.0
23/01:00pm 17.0 12.1 9.9 63 3.7 WSW 26 33 14 18 1018.4 1018.4 0.0
23/12:30pm 15.7 9.6 8.4 62 3.7 W 30 39 16 21 1018.7 1018.7 0.0
23/12:00pm 15.6 9.7 9.1 65 3.3 WSW 30 41 16 22 1018.9 1018.9 0.0
23/11:30am 15.4 9.0 8.6 64 3.4 WSW 32 43 17 23 1019.0 1019.0 0.0
23/11:00am 16.9 11.4 10.7 67 3.3 W 30 37 16 20 1018.9 1018.9 0.0
23/10:30am 16.4 11.4 11.1 71 2.8 W 28 41 15 22 1019.0 1019.0 0.0
23/10:00am 15.2 11.0 11.2 77 2.1 WNW 24 30 13 16 1018.9 1018.9 0.0
23/09:30am 15.0 11.9 11.6 80 1.8 WNW 19 24 10 13 1018.5 1018.5 0.0
23/09:00am 13.4 10.7 10.4 82 1.6 WNW 15 19 8 10 1018.3 1018.3 0.0
23/08:30am 12.9 9.0 10.8 87 1.1 WNW 22 33 12 18 1018.0 1018.0 0.0
23/08:00am 10.5 7.8 9.1 91 0.7 WNW 13 17 7 9 1017.8 1017.8 0.0
23/07:30am 10.8 7.7 8.7 87 1.0 WNW 15 17 8 9 1017.4 1017.4 0.0
23/07:00am 9.8 6.5 8.2 90 0.8 NW 15 19 8 10 1017.1 1017.1 0.0
23/06:30am 10.2 7.1 9.0 92 0.6 NW 15 17 8 9 1016.8 1016.8 0.0
23/06:00am 10.2 7.1 8.8 91 0.7 WNW 15 17 8 9 1016.6 1016.6 0.0
23/05:30am 11.1 7.8 9.4 89 0.9 WNW 17 20 9 11 1016.3 1016.3 0.0
23/05:00am 10.3 6.9 9.1 92 0.6 WNW 17 22 9 12 1016.2 1016.2 0.0
23/04:30am 9.8 6.7 8.9 94 0.4 WNW 15 17 8 9 1016.0 1016.0 0.0
23/04:00am 8.8 5.8 7.9 94 0.4 NW 13 15 7 8 1016.0 1016.0 0.0
23/03:30am 9.4 6.5 8.2 92 0.6 NW 13 13 7 7 1016.1 1016.1 0.0
23/03:00am 10.3 8.0 9.1 92 0.6 NW 11 15 6 8 1016.0 1016.0 0.0
23/02:30am 10.9 8.7 9.2 89 0.8 WNW 11 17 6 9 1016.2 1016.2 0.0
23/02:00am 12.6 9.2 10.5 87 1.1 WNW 19 24 10 13 1016.1 1016.1 0.0
23/01:30am 13.1 10.3 11.3 89 0.9 WNW 17 22 9 12 1016.1 1016.1 0.0
23/01:00am 11.7 9.8 10.6 93 0.6 NW 11 11 6 6 1016.0 1016.0 0.0
23/12:30am 11.8 10.0 10.9 94 0.5 NW 11 13 6 7 1016.0 1016.0 0.0
23/12:00am 12.2 10.0 10.9 92 0.7 WNW 13 15 7 8 1015.9 1015.9 0.0
 
Date/Time
CST
Temp
°C
App
Temp
°C
Dew
Point
°C
Rel
Hum
%
Delta-T
°C
Wind Press
QNH
hPa
Press
MSL
hPa
Rain since
9am
mm
Dir  Spd
km/h
Gust
km/h
Spd
kts
Gust
kts
22/11:43pm 12.9 10.9 11.5 91 0.7 WNW 13 17 7 9 1015.9 1015.9 0.0
22/11:30pm 13.0 11.1 11.7 92 0.7 WNW 13 17 7 9 1016.0 1016.0 0.0
22/11:23pm 13.1 11.2 11.8 92 0.7 WNW 13 17 7 9 1015.9 1015.9 0.0
22/11:00pm 13.4 11.2 12.1 92 0.7 WNW 15 20 8 11 1016.0 1016.0 0.0
22/10:30pm 13.2 12.5 11.9 92 0.7 NNW 7 11 4 6 1015.9 1015.9 0.0
22/10:00pm 13.7 12.7 12.3 91 0.8 NW 9 13 5 7 1015.6 1015.6 0.0
22/09:30pm 13.0 11.8 11.6 91 0.7 NW 9 13 5 7 1015.4 1015.4 0.0
22/09:00pm 12.5 11.0 10.7 89 0.9 N 9 11 5 6 1015.2 1015.2 0.0
22/08:30pm 13.8 12.5 12.4 91 0.8 NW 11 19 6 10 1015.0 1015.0 0.0
22/08:00pm 13.9 12.1 12.1 89 1.0 NW 13 19 7 10 1014.9 1014.9 0.0
22/07:30pm 14.1 11.9 12.1 88 1.1 WNW 15 20 8 11 1014.7 1014.7 0.0
22/07:00pm 14.0 12.6 12.2 89 1.0 WNW 11 13 6 7 1014.4 1014.4 0.0
22/06:30pm 14.2 12.7 11.9 86 1.2 WNW 11 15 6 8 1014.2 1014.2 0.0
22/06:00pm 14.5 12.5 11.5 82 1.6 WNW 13 22 7 12 1013.7 1013.7 0.0
22/05:30pm 16.0 12.6 11.2 73 2.6 WNW 20 28 11 15 1013.5 1013.5 0.0
22/05:00pm 17.2 12.4 10.3 64 3.7 WNW 26 33 14 18 1013.2 1013.2 0.0
22/04:30pm 18.6 13.7 8.6 52 5.2 WNW 24 35 13 19 1012.8 1012.8 0.0

Other Formats:

Comma delimited format used in spreadsheet applications
http://www.bom.gov.au/fwo/IDS60801/IDS60801.95661.axf

JavaScript Object Notation format (JSON) in row-major order
http://www.bom.gov.au/fwo/IDS60801/IDS60801.95661.json